sensor_id;sensor_type;location;lat;lon;timestamp;pressure;altitude;pressure_sealevel;temperature;humidity
79198;BME280;68628;48.714;9.472;2023-07-02T00:01:34;97528.31;;;16.51;81.14
79198;BME280;68628;48.714;9.472;2023-07-02T00:03:59;97518.72;;;16.62;81.04
79198;BME280;68628;48.714;9.472;2023-07-02T00:06:25;97519.03;;;16.54;81.52
79198;BME280;68628;48.714;9.472;2023-07-02T00:08:51;97521.81;;;16.59;81.89
79198;BME280;68628;48.714;9.472;2023-07-02T00:11:16;97529.38;;;16.62;81.17
79198;BME280;68628;48.714;9.472;2023-07-02T00:13:42;97525.31;;;16.59;81.49
79198;BME280;68628;48.714;9.472;2023-07-02T00:16:08;97522.66;;;16.59;81.52
79198;BME280;68628;48.714;9.472;2023-07-02T00:18:33;97527.03;;;16.54;81.62
79198;BME280;68628;48.714;9.472;2023-07-02T00:21:02;97526.56;;;16.45;82.11
79198;BME280;68628;48.714;9.472;2023-07-02T00:23:28;97536.19;;;16.46;82.49
79198;BME280;68628;48.714;9.472;2023-07-02T00:25:56;97531.41;;;16.48;81.55
79198;BME280;68628;48.714;9.472;2023-07-02T00:28:22;97532.22;;;16.37;81.48
79198;BME280;68628;48.714;9.472;2023-07-02T00:30:47;97535.25;;;16.52;81.49
79198;BME280;68628;48.714;9.472;2023-07-02T00:33:13;97528.78;;;16.60;80.86
79198;BME280;68628;48.714;9.472;2023-07-02T00:35:39;97536.41;;;16.56;80.93
79198;BME280;68628;48.714;9.472;2023-07-02T00:38:04;97535.59;;;16.44;81.96
79198;BME280;68628;48.714;9.472;2023-07-02T00:40:30;97535.44;;;16.39;82.53
79198;BME280;68628;48.714;9.472;2023-07-02T00:42:56;97535.03;;;16.42;82.13
79198;BME280;68628;48.714;9.472;2023-07-02T00:45:22;97540.09;;;16.43;82.22
79198;BME280;68628;48.714;9.472;2023-07-02T00:47:54;97542.88;;;16.48;81.41
79198;BME280;68628;48.714;9.472;2023-07-02T00:50:21;97543.69;;;16.49;81.51
79198;BME280;68628;48.714;9.472;2023-07-02T00:52:48;97544.81;;;16.41;81.63
79198;BME280;68628;48.714;9.472;2023-07-02T00:55:13;97549.44;;;16.34;82.13
79198;BME280;68628;48.714;9.472;2023-07-02T00:57:39;97549.56;;;16.27;82.78
79198;BME280;68628;48.714;9.472;2023-07-02T01:00:06;97545.84;;;16.28;82.98
79198;BME280;68628;48.714;9.472;2023-07-02T01:02:33;97546.19;;;16.32;82.59
79198;BME280;68628;48.714;9.472;2023-07-02T01:04:59;97547.59;;;16.35;82.44
79198;BME280;68628;48.714;9.472;2023-07-02T01:07:25;97548.06;;;16.31;83.22
79198;BME280;68628;48.714;9.472;2023-07-02T01:09:51;97542.28;;;16.35;83.16
79198;BME280;68628;48.714;9.472;2023-07-02T01:12:19;97536.16;;;16.34;83.07
79198;BME280;68628;48.714;9.472;2023-07-02T01:14:51;97536.28;;;16.39;83.50
79198;BME280;68628;48.714;9.472;2023-07-02T01:17:19;97536.94;;;16.35;84.09
79198;BME280;68628;48.714;9.472;2023-07-02T01:19:50;97541.13;;;16.30;83.91
79198;BME280;68628;48.714;9.472;2023-07-02T01:22:23;97535.88;;;16.12;85.15
79198;BME280;68628;48.714;9.472;2023-07-02T01:24:51;97546.66;;;16.29;84.60
79198;BME280;68628;48.714;9.472;2023-07-02T01:27:18;97539.59;;;16.23;84.32
79198;BME280;68628;48.714;9.472;2023-07-02T01:29:44;97532.34;;;16.30;84.37
79198;BME280;68628;48.714;9.472;2023-07-02T01:32:14;97533.25;;;16.36;84.39
79198;BME280;68628;48.714;9.472;2023-07-02T01:34:40;97538.00;;;16.33;84.46
79198;BME280;68628;48.714;9.472;2023-07-02T01:37:06;97543.75;;;16.19;85.71
79198;BME280;68628;48.714;9.472;2023-07-02T01:39:33;97542.28;;;16.35;85.10
79198;BME280;68628;48.714;9.472;2023-07-02T01:44:44;97558.28;;;16.16;85.81
79198;BME280;68628;48.714;9.472;2023-07-02T01:47:10;97556.00;;;16.20;84.89
79198;BME280;68628;48.714;9.472;2023-07-02T01:49:36;97566.06;;;16.29;84.83
79198;BME280;68628;48.714;9.472;2023-07-02T01:52:03;97553.13;;;16.21;84.79
79198;BME280;68628;48.714;9.472;2023-07-02T01:54:30;97548.00;;;16.08;86.01
79198;BME280;68628;48.714;9.472;2023-07-02T01:56:58;97542.47;;;16.21;85.45
79198;BME280;68628;48.714;9.472;2023-07-02T01:59:24;97535.94;;;15.93;86.16
79198;BME280;68628;48.714;9.472;2023-07-02T02:01:50;97540.25;;;16.06;85.34
79198;BME280;68628;48.714;9.472;2023-07-02T02:04:16;97540.00;;;15.96;85.32
79198;BME280;68628;48.714;9.472;2023-07-02T02:06:42;97547.25;;;16.01;84.80
79198;BME280;68628;48.714;9.472;2023-07-02T02:09:08;97549.94;;;16.01;84.19
79198;BME280;68628;48.714;9.472;2023-07-02T02:11:38;97540.09;;;15.89;84.97
79198;BME280;68628;48.714;9.472;2023-07-02T02:14:06;97540.81;;;15.78;85.37
79198;BME280;68628;48.714;9.472;2023-07-02T02:16:31;97548.41;;;15.74;85.18
79198;BME280;68628;48.714;9.472;2023-07-02T02:18:59;97558.09;;;15.69;85.23
79198;BME280;68628;48.714;9.472;2023-07-02T02:21:27;97554.63;;;15.68;85.00
79198;BME280;68628;48.714;9.472;2023-07-02T02:23:53;97550.81;;;15.64;84.46
79198;BME280;68628;48.714;9.472;2023-07-02T02:26:18;97547.78;;;15.60;85.00
79198;BME280;68628;48.714;9.472;2023-07-02T02:28:47;97547.41;;;15.57;85.41
79198;BME280;68628;48.714;9.472;2023-07-02T02:31:14;97549.84;;;15.58;85.42
79198;BME280;68628;48.714;9.472;2023-07-02T02:33:40;97544.19;;;15.55;85.43
79198;BME280;68628;48.714;9.472;2023-07-02T02:36:06;97550.28;;;15.55;85.59
79198;BME280;68628;48.714;9.472;2023-07-02T02:38:31;97557.53;;;15.48;86.36
79198;BME280;68628;48.714;9.472;2023-07-02T02:40:58;97541.31;;;15.56;85.73
79198;BME280;68628;48.714;9.472;2023-07-02T02:43:24;97551.91;;;15.56;86.26
79198;BME280;68628;48.714;9.472;2023-07-02T02:45:50;97547.78;;;15.60;85.53
79198;BME280;68628;48.714;9.472;2023-07-02T02:48:15;97542.97;;;15.69;85.68
79198;BME280;68628;48.714;9.472;2023-07-02T02:50:41;97545.78;;;15.56;86.41
79198;BME280;68628;48.714;9.472;2023-07-02T02:53:08;97540.56;;;15.49;87.28
79198;BME280;68628;48.714;9.472;2023-07-02T02:55:38;97548.38;;;15.44;87.14
79198;BME280;68628;48.714;9.472;2023-07-02T02:58:03;97547.88;;;15.54;87.43
79198;BME280;68628;48.714;9.472;2023-07-02T03:00:29;97543.28;;;15.61;87.10
79198;BME280;68628;48.714;9.472;2023-07-02T03:02:55;97552.69;;;15.75;86.40
79198;BME280;68628;48.714;9.472;2023-07-02T03:05:22;97539.56;;;15.80;85.90
79198;BME280;68628;48.714;9.472;2023-07-02T03:07:48;97551.16;;;15.68;87.03
79198;BME280;68628;48.714;9.472;2023-07-02T03:10:15;97555.56;;;15.74;87.02
79198;BME280;68628;48.714;9.472;2023-07-02T03:12:40;97553.41;;;15.52;87.45
79198;BME280;68628;48.714;9.472;2023-07-02T03:15:06;97550.28;;;15.55;87.55
79198;BME280;68628;48.714;9.472;2023-07-02T03:17:33;97553.69;;;15.62;86.86
79198;BME280;68628;48.714;9.472;2023-07-02T03:19:59;97555.97;;;15.59;87.22
79198;BME280;68628;48.714;9.472;2023-07-02T03:22:25;97557.84;;;15.70;86.84
79198;BME280;68628;48.714;9.472;2023-07-02T03:24:50;97561.66;;;15.62;86.85
79198;BME280;68628;48.714;9.472;2023-07-02T03:27:16;97560.91;;;15.55;87.05
79198;BME280;68628;48.714;9.472;2023-07-02T03:29:41;97564.56;;;15.73;87.08
79198;BME280;68628;48.714;9.472;2023-07-02T03:32:07;97564.50;;;15.61;87.46
79198;BME280;68628;48.714;9.472;2023-07-02T03:34:33;97569.63;;;15.62;87.67
79198;BME280;68628;48.714;9.472;2023-07-02T03:36:59;97565.69;;;15.65;87.72
79198;BME280;68628;48.714;9.472;2023-07-02T03:39:24;97570.03;;;15.78;86.73
79198;BME280;68628;48.714;9.472;2023-07-02T03:41:50;97576.69;;;15.69;87.95
79198;BME280;68628;48.714;9.472;2023-07-02T03:44:15;97581.69;;;15.58;87.95
79198;BME280;68628;48.714;9.472;2023-07-02T03:46:43;97582.53;;;15.59;86.90
79198;BME280;68628;48.714;9.472;2023-07-02T03:49:08;97592.47;;;15.63;85.59
79198;BME280;68628;48.714;9.472;2023-07-02T03:51:34;97593.53;;;15.62;84.12
79198;BME280;68628;48.714;9.472;2023-07-02T03:53:59;97599.88;;;15.61;84.59
79198;BME280;68628;48.714;9.472;2023-07-02T03:56:25;97599.34;;;15.53;84.51
79198;BME280;68628;48.714;9.472;2023-07-02T03:58:54;97608.88;;;15.42;85.44
79198;BME280;68628;48.714;9.472;2023-07-02T04:01:20;97613.78;;;15.57;85.76
79198;BME280;68628;48.714;9.472;2023-07-02T04:03:50;97620.22;;;15.49;85.22
79198;BME280;68628;48.714;9.472;2023-07-02T04:06:17;97617.28;;;15.57;85.49
79198;BME280;68628;48.714;9.472;2023-07-02T04:08:44;97628.53;;;15.34;85.89
79198;BME280;68628;48.714;9.472;2023-07-02T04:11:11;97628.53;;;15.34;86.08
79198;BME280;68628;48.714;9.472;2023-07-02T04:13:37;97638.28;;;15.40;86.25
79198;BME280;68628;48.714;9.472;2023-07-02T04:16:04;97641.28;;;15.25;87.04
79198;BME280;68628;48.714;9.472;2023-07-02T04:18:29;97647.66;;;15.43;85.69
79198;BME280;68628;48.714;9.472;2023-07-02T04:20:56;97643.91;;;15.51;85.51
79198;BME280;68628;48.714;9.472;2023-07-02T04:23:22;97646.31;;;15.33;85.68
79198;BME280;68628;48.714;9.472;2023-07-02T04:25:47;97652.97;;;15.43;85.78
79198;BME280;68628;48.714;9.472;2023-07-02T04:28:13;97663.59;;;15.43;85.95
79198;BME280;68628;48.714;9.472;2023-07-02T04:30:39;97662.91;;;15.47;86.11
79198;BME280;68628;48.714;9.472;2023-07-02T04:33:04;97666.25;;;15.43;86.20
79198;BME280;68628;48.714;9.472;2023-07-02T04:35:33;97672.72;;;15.47;85.71
79198;BME280;68628;48.714;9.472;2023-07-02T04:38:00;97672.06;;;15.52;85.94
79198;BME280;68628;48.714;9.472;2023-07-02T04:40:26;97671.81;;;15.35;85.90
79198;BME280;68628;48.714;9.472;2023-07-02T04:42:52;97675.38;;;15.47;85.92
79198;BME280;68628;48.714;9.472;2023-07-02T04:45:26;97679.66;;;15.29;86.75
79198;BME280;68628;48.714;9.472;2023-07-02T04:47:57;97670.50;;;15.44;85.94
79198;BME280;68628;48.714;9.472;2023-07-02T04:50:23;97672.72;;;15.28;86.99
79198;BME280;68628;48.714;9.472;2023-07-02T04:52:51;97680.69;;;15.47;86.24
79198;BME280;68628;48.714;9.472;2023-07-02T04:55:16;97681.34;;;15.42;86.65
79198;BME280;68628;48.714;9.472;2023-07-02T04:57:42;97688.06;;;15.45;86.55
79198;BME280;68628;48.714;9.472;2023-07-02T05:00:09;97683.44;;;15.15;86.99
79198;BME280;68628;48.714;9.472;2023-07-02T05:02:36;97683.84;;;15.37;85.71
79198;BME280;68628;48.714;9.472;2023-07-02T05:05:01;97681.31;;;15.24;85.91
79198;BME280;68628;48.714;9.472;2023-07-02T05:07:27;97681.78;;;15.39;86.66
79198;BME280;68628;48.714;9.472;2023-07-02T05:09:53;97683.84;;;15.37;86.67
79198;BME280;68628;48.714;9.472;2023-07-02T05:12:19;97689.44;;;15.29;86.00
79198;BME280;68628;48.714;9.472;2023-07-02T05:14:45;97698.41;;;15.28;86.66
79198;BME280;68628;48.714;9.472;2023-07-02T05:17:11;97698.75;;;15.38;86.40
79198;BME280;68628;48.714;9.472;2023-07-02T05:19:40;97703.91;;;15.52;85.32
79198;BME280;68628;48.714;9.472;2023-07-02T05:22:06;97700.59;;;15.38;86.44
79198;BME280;68628;48.714;9.472;2023-07-02T05:24:33;97705.25;;;15.61;86.08
79198;BME280;68628;48.714;9.472;2023-07-02T05:26:58;97706.53;;;15.77;85.48
79198;BME280;68628;48.714;9.472;2023-07-02T05:29:24;97715.53;;;15.57;85.50
79198;BME280;68628;48.714;9.472;2023-07-02T05:31:52;97719.13;;;15.44;85.37
79198;BME280;68628;48.714;9.472;2023-07-02T05:34:18;97716.31;;;15.14;85.90
79198;BME280;68628;48.714;9.472;2023-07-02T05:36:44;97704.78;;;15.02;86.37
79198;BME280;68628;48.714;9.472;2023-07-02T05:39:09;97708.72;;;15.43;85.68
79198;BME280;68628;48.714;9.472;2023-07-02T05:41:35;97709.53;;;15.62;84.21
79198;BME280;68628;48.714;9.472;2023-07-02T05:44:00;97707.75;;;15.56;84.86
79198;BME280;68628;48.714;9.472;2023-07-02T05:46:26;97706.78;;;15.94;84.88
79198;BME280;68628;48.714;9.472;2023-07-02T05:48:52;97720.38;;;15.86;84.58
79198;BME280;68628;48.714;9.472;2023-07-02T05:51:24;97727.00;;;16.13;83.43
79198;BME280;68628;48.714;9.472;2023-07-02T05:53:52;97726.75;;;16.33;82.13
79198;BME280;68628;48.714;9.472;2023-07-02T05:56:18;97725.75;;;16.16;82.00
79198;BME280;68628;48.714;9.472;2023-07-02T05:58:45;97725.69;;;15.86;82.26
79198;BME280;68628;48.714;9.472;2023-07-02T06:01:12;97721.28;;;16.28;82.03
79198;BME280;68628;48.714;9.472;2023-07-02T06:03:37;97719.66;;;16.76;81.33
79198;BME280;68628;48.714;9.472;2023-07-02T06:06:03;97717.56;;;16.48;80.56
79198;BME280;68628;48.714;9.472;2023-07-02T06:08:29;97725.47;;;16.55;79.54
79198;BME280;68628;48.714;9.472;2023-07-02T06:10:54;97722.56;;;16.56;81.13
79198;BME280;68628;48.714;9.472;2023-07-02T06:13:20;97720.81;;;16.80;80.84
79198;BME280;68628;48.714;9.472;2023-07-02T06:15:46;97722.50;;;17.05;79.17
79198;BME280;68628;48.714;9.472;2023-07-02T06:18:12;97731.53;;;16.92;78.79
79198;BME280;68628;48.714;9.472;2023-07-02T06:20:38;97724.69;;;16.96;80.51
79198;BME280;68628;48.714;9.472;2023-07-02T06:23:04;97731.69;;;17.21;77.38
79198;BME280;68628;48.714;9.472;2023-07-02T06:25:29;97732.03;;;17.48;78.80
79198;BME280;68628;48.714;9.472;2023-07-02T06:27:55;97730.22;;;18.25;73.75
79198;BME280;68628;48.714;9.472;2023-07-02T06:30:28;97717.09;;;18.64;73.05
79198;BME280;68628;48.714;9.472;2023-07-02T06:32:54;97725.25;;;19.04;71.28
79198;BME280;68628;48.714;9.472;2023-07-02T06:35:20;97720.13;;;18.85;71.31
79198;BME280;68628;48.714;9.472;2023-07-02T06:37:46;97718.56;;;19.18;69.55
79198;BME280;68628;48.714;9.472;2023-07-02T06:40:12;97717.25;;;19.21;70.71
79198;BME280;68628;48.714;9.472;2023-07-02T06:42:38;97724.72;;;19.36;70.48
79198;BME280;68628;48.714;9.472;2023-07-02T06:45:05;97723.97;;;19.40;70.34
79198;BME280;68628;48.714;9.472;2023-07-02T06:47:34;97721.13;;;19.30;71.60
79198;BME280;68628;48.714;9.472;2023-07-02T06:49:59;97729.47;;;19.68;69.23
79198;BME280;68628;48.714;9.472;2023-07-02T06:52:25;97723.38;;;20.11;65.90
79198;BME280;68628;48.714;9.472;2023-07-02T06:54:51;97730.16;;;19.80;64.77
79198;BME280;68628;48.714;9.472;2023-07-02T06:57:17;97730.88;;;20.14;64.61
79198;BME280;68628;48.714;9.472;2023-07-02T06:59:42;97727.22;;;20.21;64.43
79198;BME280;68628;48.714;9.472;2023-07-02T07:02:08;97728.09;;;20.26;65.21
79198;BME280;68628;48.714;9.472;2023-07-02T07:04:34;97738.97;;;20.20;64.48
79198;BME280;68628;48.714;9.472;2023-07-02T07:07:03;97735.50;;;20.19;62.45
79198;BME280;68628;48.714;9.472;2023-07-02T07:09:29;97740.59;;;19.98;65.00
79198;BME280;68628;48.714;9.472;2023-07-02T07:11:55;97735.75;;;19.95;64.76
79198;BME280;68628;48.714;9.472;2023-07-02T07:14:21;97738.00;;;20.53;61.27
79198;BME280;68628;48.714;9.472;2023-07-02T07:16:46;97747.84;;;20.25;61.65
79198;BME280;68628;48.714;9.472;2023-07-02T07:19:12;97740.72;;;19.53;63.68
79198;BME280;68628;48.714;9.472;2023-07-02T07:21:38;97743.88;;;19.84;64.46
79198;BME280;68628;48.714;9.472;2023-07-02T07:24:04;97742.06;;;19.89;64.29
79198;BME280;68628;48.714;9.472;2023-07-02T07:26:30;97741.19;;;19.84;61.96
79198;BME280;68628;48.714;9.472;2023-07-02T07:28:55;97742.91;;;19.73;62.72
79198;BME280;68628;48.714;9.472;2023-07-02T07:31:21;97740.84;;;19.80;64.66
79198;BME280;68628;48.714;9.472;2023-07-02T07:33:47;97739.97;;;19.74;64.15
79198;BME280;68628;48.714;9.472;2023-07-02T07:36:12;97744.84;;;19.60;62.67
79198;BME280;68628;48.714;9.472;2023-07-02T07:38:39;97744.66;;;19.67;60.18
79198;BME280;68628;48.714;9.472;2023-07-02T07:41:05;97748.88;;;19.63;61.40
79198;BME280;68628;48.714;9.472;2023-07-02T07:43:30;97744.81;;;19.77;61.44
79198;BME280;68628;48.714;9.472;2023-07-02T07:45:56;97741.09;;;20.18;62.19
79198;BME280;68628;48.714;9.472;2023-07-02T07:48:22;97747.56;;;20.22;61.42
79198;BME280;68628;48.714;9.472;2023-07-02T07:50:47;97751.84;;;20.23;61.75
79198;BME280;68628;48.714;9.472;2023-07-02T07:53:14;97745.69;;;20.44;60.15
79198;BME280;68628;48.714;9.472;2023-07-02T07:55:39;97749.59;;;20.59;61.84
79198;BME280;68628;48.714;9.472;2023-07-02T07:58:05;97749.28;;;20.55;58.99
79198;BME280;68628;48.714;9.472;2023-07-02T08:00:30;97746.66;;;20.60;59.22
79198;BME280;68628;48.714;9.472;2023-07-02T08:02:56;97749.09;;;20.62;58.63
79198;BME280;68628;48.714;9.472;2023-07-02T08:05:22;97745.88;;;20.16;58.03
79198;BME280;68628;48.714;9.472;2023-07-02T08:07:48;97747.72;;;20.59;58.42
79198;BME280;68628;48.714;9.472;2023-07-02T08:10:14;97743.28;;;21.25;56.35
79198;BME280;68628;48.714;9.472;2023-07-02T08:12:40;97742.50;;;21.29;56.83
79198;BME280;68628;48.714;9.472;2023-07-02T08:15:06;97744.03;;;21.20;55.03
79198;BME280;68628;48.714;9.472;2023-07-02T08:17:32;97752.72;;;21.38;55.58
79198;BME280;68628;48.714;9.472;2023-07-02T08:19:57;97744.66;;;21.00;55.12
79198;BME280;68628;48.714;9.472;2023-07-02T08:22:23;97747.13;;;21.39;54.60
79198;BME280;68628;48.714;9.472;2023-07-02T08:24:49;97744.78;;;21.48;54.43
79198;BME280;68628;48.714;9.472;2023-07-02T08:27:18;97752.28;;;21.84;54.46
79198;BME280;68628;48.714;9.472;2023-07-02T08:29:47;97735.66;;;21.49;55.07
79198;BME280;68628;48.714;9.472;2023-07-02T08:32:13;97745.56;;;21.86;54.58
79198;BME280;68628;48.714;9.472;2023-07-02T08:34:39;97750.78;;;22.08;53.09
79198;BME280;68628;48.714;9.472;2023-07-02T08:37:05;97742.75;;;23.08;51.04
79198;BME280;68628;48.714;9.472;2023-07-02T08:39:30;97746.78;;;23.57;46.08
79198;BME280;68628;48.714;9.472;2023-07-02T08:41:56;97739.56;;;23.26;47.36
79198;BME280;68628;48.714;9.472;2023-07-02T08:44:22;97759.38;;;22.79;49.46
79198;BME280;68628;48.714;9.472;2023-07-02T08:46:48;97748.13;;;23.13;50.28
79198;BME280;68628;48.714;9.472;2023-07-02T08:49:16;97753.84;;;22.33;52.17
79198;BME280;68628;48.714;9.472;2023-07-02T08:51:45;97753.16;;;22.58;48.81
79198;BME280;68628;48.714;9.472;2023-07-02T08:54:12;97753.19;;;22.73;48.82
79198;BME280;68628;48.714;9.472;2023-07-02T08:56:39;97753.19;;;22.78;49.00
79198;BME280;68628;48.714;9.472;2023-07-02T08:59:07;97744.81;;;22.54;47.64
79198;BME280;68628;48.714;9.472;2023-07-02T09:01:45;97747.28;;;23.90;47.11
79198;BME280;68628;48.714;9.472;2023-07-02T09:04:16;97748.56;;;24.13;44.22
79198;BME280;68628;48.714;9.472;2023-07-02T09:06:42;97748.81;;;25.17;41.77
79198;BME280;68628;48.714;9.472;2023-07-02T09:09:08;97743.25;;;24.63;43.16
79198;BME280;68628;48.714;9.472;2023-07-02T09:11:34;97746.50;;;23.69;44.49
79198;BME280;68628;48.714;9.472;2023-07-02T09:14:00;97744.97;;;25.23;41.59
79198;BME280;68628;48.714;9.472;2023-07-02T09:16:31;97737.84;;;25.42;41.10
79198;BME280;68628;48.714;9.472;2023-07-02T09:19:08;97733.00;;;25.05;39.79
79198;BME280;68628;48.714;9.472;2023-07-02T09:21:44;97742.00;;;26.13;38.49
79198;BME280;68628;48.714;9.472;2023-07-02T09:24:19;97740.81;;;24.56;39.69
79198;BME280;68628;48.714;9.472;2023-07-02T09:26:49;97742.84;;;24.30;41.30
79198;BME280;68628;48.714;9.472;2023-07-02T09:29:22;97727.31;;;24.11;41.46
79198;BME280;68628;48.714;9.472;2023-07-02T09:32:04;97734.34;;;22.58;42.85
79198;BME280;68628;48.714;9.472;2023-07-02T09:34:35;97737.63;;;22.70;42.55
79198;BME280;68628;48.714;9.472;2023-07-02T09:37:02;97722.34;;;23.17;41.84
79198;BME280;68628;48.714;9.472;2023-07-02T09:39:35;97731.97;;;23.80;43.62
79198;BME280;68628;48.714;9.472;2023-07-02T09:42:08;97730.56;;;24.69;42.24
79198;BME280;68628;48.714;9.472;2023-07-02T09:44:36;97728.38;;;24.71;40.62
79198;BME280;68628;48.714;9.472;2023-07-02T09:47:04;97727.28;;;25.46;40.27
79198;BME280;68628;48.714;9.472;2023-07-02T09:52:05;97720.75;;;26.49;37.41
79198;BME280;68628;48.714;9.472;2023-07-02T09:54:33;97723.47;;;27.20;37.10
79198;BME280;68628;48.714;9.472;2023-07-02T09:57:00;97722.13;;;26.47;36.84
79198;BME280;68628;48.714;9.472;2023-07-02T09:59:26;97716.75;;;25.74;37.42
79198;BME280;68628;48.714;9.472;2023-07-02T10:01:52;97716.06;;;26.11;38.16
79198;BME280;68628;48.714;9.472;2023-07-02T10:04:20;97715.09;;;25.78;38.09
79198;BME280;68628;48.714;9.472;2023-07-02T10:06:48;97713.59;;;24.58;40.56
79198;BME280;68628;48.714;9.472;2023-07-02T10:09:34;97713.22;;;24.80;39.28
79198;BME280;68628;48.714;9.472;2023-07-02T10:14:50;97707.28;;;26.25;36.74
79198;BME280;68628;48.714;9.472;2023-07-02T10:20:04;97709.09;;;26.73;35.27
79198;BME280;68628;48.714;9.472;2023-07-02T10:22:46;97712.84;;;27.10;34.88
79198;BME280;68628;48.714;9.472;2023-07-02T10:25:39;97715.19;;;26.59;34.52
79198;BME280;68628;48.714;9.472;2023-07-02T10:28:18;97712.94;;;25.16;36.97
79198;BME280;68628;48.714;9.472;2023-07-02T10:30:48;97699.25;;;24.28;38.65
79198;BME280;68628;48.714;9.472;2023-07-02T10:33:15;97693.94;;;24.12;39.12
79198;BME280;68628;48.714;9.472;2023-07-02T10:35:47;97686.91;;;25.06;38.17
79198;BME280;68628;48.714;9.472;2023-07-02T10:38:24;97689.72;;;23.91;39.68
79198;BME280;68628;48.714;9.472;2023-07-02T10:41:00;97698.66;;;24.86;39.88
79198;BME280;68628;48.714;9.472;2023-07-02T10:43:29;97697.72;;;25.31;37.56
79198;BME280;68628;48.714;9.472;2023-07-02T10:46:00;97686.28;;;24.30;37.96
79198;BME280;68628;48.714;9.472;2023-07-02T10:48:28;97682.97;;;25.23;35.49
79198;BME280;68628;48.714;9.472;2023-07-02T10:50:54;97680.28;;;24.88;35.50
79198;BME280;68628;48.714;9.472;2023-07-02T10:53:20;97700.28;;;23.56;36.32
79198;BME280;68628;48.714;9.472;2023-07-02T10:55:54;97704.81;;;23.66;36.62
79198;BME280;68628;48.714;9.472;2023-07-02T10:58:21;97703.19;;;24.41;36.34
79198;BME280;68628;48.714;9.472;2023-07-02T11:00:49;97695.41;;;25.19;34.29
79198;BME280;68628;48.714;9.472;2023-07-02T11:03:21;97700.72;;;25.29;34.20
79198;BME280;68628;48.714;9.472;2023-07-02T11:05:49;97704.91;;;25.46;34.71
79198;BME280;68628;48.714;9.472;2023-07-02T11:08:16;97708.06;;;26.06;33.99
79198;BME280;68628;48.714;9.472;2023-07-02T11:10:43;97702.25;;;26.18;34.36
79198;BME280;68628;48.714;9.472;2023-07-02T11:13:16;97687.59;;;25.76;32.94
79198;BME280;68628;48.714;9.472;2023-07-02T11:15:44;97692.69;;;25.53;34.66
79198;BME280;68628;48.714;9.472;2023-07-02T11:18:16;97711.31;;;25.79;33.75
79198;BME280;68628;48.714;9.472;2023-07-02T11:20:44;97697.41;;;25.67;34.00
79198;BME280;68628;48.714;9.472;2023-07-02T11:23:22;97698.53;;;25.36;34.69
79198;BME280;68628;48.714;9.472;2023-07-02T11:26:00;97699.81;;;24.70;35.59
79198;BME280;68628;48.714;9.472;2023-07-02T11:28:31;97691.25;;;24.57;35.09
79198;BME280;68628;48.714;9.472;2023-07-02T11:31:02;97696.88;;;25.06;33.76
79198;BME280;68628;48.714;9.472;2023-07-02T11:33:36;97687.34;;;25.14;34.12
79198;BME280;68628;48.714;9.472;2023-07-02T11:36:04;97692.22;;;25.70;34.23
79198;BME280;68628;48.714;9.472;2023-07-02T11:38:30;97698.00;;;26.12;34.11
79198;BME280;68628;48.714;9.472;2023-07-02T11:40:56;97684.06;;;26.43;32.31
79198;BME280;68628;48.714;9.472;2023-07-02T11:43:22;97679.06;;;25.39;33.79
79198;BME280;68628;48.714;9.472;2023-07-02T11:45:47;97690.56;;;25.50;34.68
79198;BME280;68628;48.714;9.472;2023-07-02T11:48:13;97680.41;;;25.90;33.69
79198;BME280;68628;48.714;9.472;2023-07-02T11:50:39;97681.09;;;26.01;32.56
79198;BME280;68628;48.714;9.472;2023-07-02T11:53:07;97675.94;;;24.53;34.20
79198;BME280;68628;48.714;9.472;2023-07-02T11:55:36;97679.97;;;25.59;34.47
79198;BME280;68628;48.714;9.472;2023-07-02T11:58:02;97677.34;;;26.21;32.85
79198;BME280;68628;48.714;9.472;2023-07-02T12:00:27;97673.50;;;26.47;32.95
79198;BME280;68628;48.714;9.472;2023-07-02T12:02:53;97671.13;;;26.21;32.52
79198;BME280;68628;48.714;9.472;2023-07-02T12:05:19;97678.34;;;24.99;34.61
79198;BME280;68628;48.714;9.472;2023-07-02T12:07:45;97659.22;;;24.95;34.09
79198;BME280;68628;48.714;9.472;2023-07-02T12:10:11;97668.88;;;25.36;33.30
79198;BME280;68628;48.714;9.472;2023-07-02T12:12:39;97668.03;;;24.72;32.97
79198;BME280;68628;48.714;9.472;2023-07-02T12:15:05;97664.13;;;25.76;33.42
79198;BME280;68628;48.714;9.472;2023-07-02T12:17:31;97654.88;;;26.07;31.80
79198;BME280;68628;48.714;9.472;2023-07-02T12:19:59;97668.53;;;26.16;30.57
79198;BME280;68628;48.714;9.472;2023-07-02T12:22:24;97665.16;;;26.24;31.93
79198;BME280;68628;48.714;9.472;2023-07-02T12:24:50;97670.88;;;26.41;32.75
79198;BME280;68628;48.714;9.472;2023-07-02T12:27:18;97659.63;;;26.34;31.34
79198;BME280;68628;48.714;9.472;2023-07-02T12:29:44;97654.97;;;26.78;31.07
79198;BME280;68628;48.714;9.472;2023-07-02T12:32:09;97649.91;;;26.52;31.85
79198;BME280;68628;48.714;9.472;2023-07-02T12:34:35;97648.41;;;26.98;31.63
79198;BME280;68628;48.714;9.472;2023-07-02T12:37:01;97644.06;;;27.30;30.60
79198;BME280;68628;48.714;9.472;2023-07-02T12:39:27;97653.72;;;27.78;29.94
79198;BME280;68628;48.714;9.472;2023-07-02T12:41:52;97652.22;;;27.58;29.83
79198;BME280;68628;48.714;9.472;2023-07-02T12:44:18;97644.69;;;27.69;29.71
79198;BME280;68628;48.714;9.472;2023-07-02T12:46:44;97647.22;;;27.65;30.02
79198;BME280;68628;48.714;9.472;2023-07-02T12:49:09;97660.78;;;26.09;30.32
79198;BME280;68628;48.714;9.472;2023-07-02T12:51:35;97660.44;;;26.16;30.34
79198;BME280;68628;48.714;9.472;2023-07-02T12:54:05;97659.00;;;25.75;32.06
79198;BME280;68628;48.714;9.472;2023-07-02T12:56:31;97653.69;;;26.51;31.49
79198;BME280;68628;48.714;9.472;2023-07-02T12:58:56;97655.88;;;25.63;29.99
79198;BME280;68628;48.714;9.472;2023-07-02T13:01:22;97648.16;;;25.56;31.73
79198;BME280;68628;48.714;9.472;2023-07-02T13:03:49;97645.75;;;25.54;32.27
79198;BME280;68628;48.714;9.472;2023-07-02T13:06:15;97655.72;;;25.78;30.08
79198;BME280;68628;48.714;9.472;2023-07-02T13:08:41;97652.09;;;26.12;31.80
79198;BME280;68628;48.714;9.472;2023-07-02T13:11:16;97655.88;;;26.30;29.60